createdAt,value
2018-03-01T00:00:57.057Z,-3.72
2018-03-01T00:01:57.031Z,-3.72
2018-03-01T00:02:57.011Z,-3.86
2018-03-01T00:03:56.991Z,-3.96
2018-03-01T00:04:56.988Z,-4.15
2018-03-01T00:05:56.954Z,-4.14
2018-03-01T00:06:56.934Z,-4.30
2018-03-01T00:07:56.915Z,-4.36
2018-03-01T00:08:56.897Z,-4.38
2018-03-01T00:09:56.879Z,-4.46
2018-03-01T00:10:56.859Z,-4.53
2018-03-01T00:11:56.841Z,-4.43
2018-03-01T00:12:56.815Z,-4.47
2018-03-01T00:13:56.802Z,-4.47
2018-03-01T00:14:56.777Z,-4.38
2018-03-01T00:15:56.764Z,-4.40
2018-03-01T00:16:56.746Z,-4.38
2018-03-01T00:17:56.721Z,-4.25
2018-03-01T00:18:56.699Z,-4.32
2018-03-01T00:19:56.683Z,-4.22
2018-03-01T00:20:56.665Z,-4.11
2018-03-01T00:21:56.635Z,-4.12
2018-03-01T00:22:56.629Z,-4.10
2018-03-01T00:23:56.606Z,-4.06
2018-03-01T00:24:56.581Z,-4.01
2018-03-01T00:25:56.565Z,-3.97
2018-03-01T00:26:56.549Z,-3.99
2018-03-01T00:27:56.523Z,-4.00
2018-03-01T00:28:56.510Z,-3.94
2018-03-01T00:29:56.484Z,-3.91
2018-03-01T00:30:56.459Z,-3.83
2018-03-01T00:31:56.449Z,-3.91
2018-03-01T00:32:56.426Z,-3.91
2018-03-01T00:33:56.408Z,-3.79
2018-03-01T00:34:56.387Z,-3.83
2018-03-01T00:35:56.369Z,-3.90
2018-03-01T00:36:56.343Z,-3.85
2018-03-01T00:37:56.325Z,-3.88
2018-03-01T00:38:56.305Z,-3.79
2018-03-01T00:39:56.294Z,-3.75
2018-03-01T00:40:56.271Z,-3.75
2018-03-01T00:41:56.249Z,-3.79
2018-03-01T00:42:56.227Z,-3.81
2018-03-01T00:43:56.213Z,-3.81
2018-03-01T00:44:56.194Z,-3.75
2018-03-01T00:45:56.168Z,-3.81
2018-03-01T00:46:56.191Z,-3.79
2018-03-01T00:47:56.129Z,-3.71
2018-03-01T00:48:56.111Z,-3.76
2018-03-01T00:49:56.087Z,-3.75
2018-03-01T00:50:56.073Z,-3.72
2018-03-01T00:51:56.049Z,-3.78
2018-03-01T00:52:56.032Z,-3.78
2018-03-01T00:53:56.012Z,-3.90
2018-03-01T00:54:55.989Z,-3.93
2018-03-01T00:55:55.967Z,-3.99
2018-03-01T00:56:55.955Z,-4.00
2018-03-01T00:57:55.933Z,-4.00
2018-03-01T00:58:55.911Z,-3.97
2018-03-01T00:59:55.892Z,-3.94
2018-03-01T01:00:55.875Z,-3.85
2018-03-01T01:01:55.849Z,-3.83
2018-03-01T01:02:55.830Z,-3.88
2018-03-01T01:03:55.817Z,-4.00
2018-03-01T01:04:55.797Z,-3.99
2018-03-01T01:05:55.773Z,-4.11
2018-03-01T01:06:55.761Z,-4.28
2018-03-01T01:07:55.740Z,-4.32
2018-03-01T01:08:55.717Z,-4.39
2018-03-01T01:09:55.697Z,-4.38
2018-03-01T01:10:55.677Z,-4.33
2018-03-01T01:11:55.655Z,-4.28
2018-03-01T01:12:55.638Z,-4.25
2018-03-01T01:13:55.619Z,-4.29
2018-03-01T01:14:55.593Z,-4.12
2018-03-01T01:15:55.577Z,-4.10
2018-03-01T01:16:55.561Z,-4.11
2018-03-01T01:17:55.533Z,-4.07
2018-03-01T01:18:55.517Z,-4.10
2018-03-01T01:19:55.503Z,-4.06
2018-03-01T01:20:55.481Z,-4.01
2018-03-01T01:21:55.463Z,-4.07
2018-03-01T01:22:55.437Z,-4.14
2018-03-01T01:23:55.417Z,-4.00
2018-03-01T01:24:55.402Z,-4.03
2018-03-01T01:25:55.377Z,-3.88
2018-03-01T01:26:55.364Z,-3.97
2018-03-01T01:27:55.339Z,-3.97
2018-03-01T01:28:55.323Z,-3.81
2018-03-01T01:29:55.299Z,-3.85
2018-03-01T01:30:55.279Z,-3.86
2018-03-01T01:31:55.265Z,-3.88
2018-03-01T01:32:55.247Z,-3.90
2018-03-01T01:33:55.223Z,-3.96
2018-03-01T01:34:55.204Z,-4.14
2018-03-01T01:35:55.188Z,-4.11
2018-03-01T01:36:55.169Z,-4.11
2018-03-01T01:37:55.145Z,-4.06
2018-03-01T01:38:55.127Z,-4.12
2018-03-01T01:39:55.106Z,-4.11
2018-03-01T01:40:55.086Z,-3.99
2018-03-01T01:41:55.066Z,-4.11
2018-03-01T01:42:55.052Z,-4.03
2018-03-01T01:43:55.030Z,-4.12
2018-03-01T01:44:55.008Z,-4.14
2018-03-01T01:45:54.987Z,-4.10
2018-03-01T01:46:54.973Z,-4.11
2018-03-01T01:47:54.959Z,-4.17
2018-03-01T01:48:54.933Z,-4.12
2018-03-01T01:49:54.910Z,-4.15
2018-03-01T01:50:54.887Z,-4.12
2018-03-01T01:51:54.873Z,-4.17
2018-03-01T01:52:54.853Z,-4.24
2018-03-01T01:53:54.829Z,-4.28
2018-03-01T01:54:54.815Z,-4.22
2018-03-01T01:55:54.798Z,-4.24
2018-03-01T01:56:54.773Z,-4.20
2018-03-01T01:57:54.749Z,-4.15
2018-03-01T01:58:54.735Z,-4.24
2018-03-01T01:59:54.721Z,-4.22
2018-03-01T02:00:54.695Z,-4.32
2018-03-01T02:01:54.676Z,-4.29
2018-03-01T02:02:54.657Z,-4.30
2018-03-01T02:03:54.643Z,-4.18
2018-03-01T02:04:54.618Z,-4.22
2018-03-01T02:05:54.599Z,-4.15
2018-03-01T02:06:54.595Z,-4.01
2018-03-01T02:07:54.567Z,-3.91
2018-03-01T02:08:54.542Z,-3.93
2018-03-01T02:09:54.521Z,-3.82
2018-03-01T02:10:54.497Z,-3.75
2018-03-01T02:11:54.480Z,-3.72
2018-03-01T02:12:54.461Z,-3.76
2018-03-01T02:13:54.441Z,-3.67
2018-03-01T02:14:54.427Z,-3.64
2018-03-01T02:15:54.397Z,-3.56
2018-03-01T02:16:54.382Z,-3.71
2018-03-01T02:17:54.355Z,-3.64
2018-03-01T02:18:54.342Z,-3.72
2018-03-01T02:19:54.325Z,-3.91
2018-03-01T02:20:54.301Z,-3.83
2018-03-01T02:21:54.284Z,-3.83
2018-03-01T02:22:54.265Z,-3.86
2018-03-01T02:23:54.245Z,-3.91
2018-03-01T02:24:54.221Z,-3.83
2018-03-01T02:25:54.205Z,-3.91
2018-03-01T02:26:54.190Z,-3.93
2018-03-01T02:27:54.168Z,-4.04
2018-03-01T02:28:54.145Z,-4.10
2018-03-01T02:29:54.128Z,-4.14
2018-03-01T02:30:54.117Z,-4.11
2018-03-01T02:31:54.084Z,-4.18
2018-03-01T02:32:54.074Z,-4.14
2018-03-01T02:33:54.044Z,-4.15
2018-03-01T02:34:54.041Z,-4.18
2018-03-01T02:35:54.005Z,-4.10
2018-03-01T02:36:53.988Z,-4.12
2018-03-01T02:37:53.965Z,-4.14
2018-03-01T02:38:53.950Z,-4.06
2018-03-01T02:39:53.929Z,-3.99
2018-03-01T02:40:53.909Z,-4.10
2018-03-01T02:41:53.890Z,-4.00
2018-03-01T02:42:53.867Z,-4.07
2018-03-01T02:43:53.851Z,-4.11
2018-03-01T02:44:53.835Z,-4.06
2018-03-01T02:45:53.814Z,-4.01
2018-03-01T02:46:53.792Z,-3.99
2018-03-01T02:47:53.769Z,-4.10
2018-03-01T02:48:53.750Z,-4.11
2018-03-01T02:49:53.731Z,-4.04
2018-03-01T02:50:53.716Z,-4.06
2018-03-01T02:51:53.695Z,-4.11
2018-03-01T02:52:53.671Z,-3.97
2018-03-01T02:53:53.656Z,-4.03
2018-03-01T02:54:53.637Z,-4.00
2018-03-01T02:55:53.622Z,-4.00
2018-03-01T02:56:53.597Z,-3.94
2018-03-01T02:57:53.575Z,-4.00
2018-03-01T02:58:53.553Z,-3.99
2018-03-01T02:59:53.540Z,-3.99
2018-03-01T03:00:53.518Z,-4.06
2018-03-01T03:01:53.496Z,-4.10
2018-03-01T03:02:53.475Z,-3.99
2018-03-01T03:03:53.457Z,-3.96
2018-03-01T03:04:53.439Z,-4.00
2018-03-01T03:05:53.423Z,-3.97
2018-03-01T03:06:53.403Z,-3.97
2018-03-01T03:07:53.381Z,-4.06
2018-03-01T03:08:53.362Z,-3.97
2018-03-01T03:09:53.337Z,-4.03
2018-03-01T03:10:53.324Z,-4.06
2018-03-01T03:11:53.305Z,-3.99
2018-03-01T03:12:53.284Z,-4.11
2018-03-01T03:13:53.259Z,-3.90
2018-03-01T03:14:53.242Z,-3.85
2018-03-01T03:15:53.222Z,-3.81
2018-03-01T03:16:53.209Z,-3.64
2018-03-01T03:17:53.182Z,-3.64
2018-03-01T03:18:53.171Z,-3.72
2018-03-01T03:19:53.141Z,-3.71
2018-03-01T03:20:53.128Z,-3.69
2018-03-01T03:21:53.112Z,-3.63
2018-03-01T03:22:53.084Z,-3.63
2018-03-01T03:23:53.068Z,-3.59
2018-03-01T03:24:53.046Z,-3.67
2018-03-01T03:25:53.028Z,-3.72
2018-03-01T03:26:53.009Z,-3.81
2018-03-01T03:27:52.991Z,-3.91
2018-03-01T03:28:52.972Z,-3.91
2018-03-01T03:29:52.948Z,-3.96
2018-03-01T03:30:52.932Z,-3.93
2018-03-01T03:31:52.910Z,-3.86
2018-03-01T03:32:52.890Z,-3.88
2018-03-01T03:33:52.875Z,-3.79
2018-03-01T03:34:52.853Z,-3.76
2018-03-01T03:35:52.841Z,-3.69
2018-03-01T03:36:52.812Z,-3.62
2018-03-01T03:37:52.790Z,-3.60
2018-03-01T03:38:52.775Z,-3.56
2018-03-01T03:39:52.754Z,-3.52
2018-03-01T03:40:52.740Z,-3.49
2018-03-01T03:41:52.712Z,-3.57
2018-03-01T03:42:52.693Z,-3.57
2018-03-01T03:43:52.680Z,-3.59
2018-03-01T03:44:52.653Z,-3.64
2018-03-01T03:45:52.634Z,-3.69
2018-03-01T03:46:52.618Z,-3.69
2018-03-01T03:47:52.605Z,-3.63
2018-03-01T03:48:52.580Z,-3.69
2018-03-01T03:49:52.560Z,-3.72
2018-03-01T03:50:52.540Z,-3.72
2018-03-01T03:51:52.532Z,-3.62
2018-03-01T03:52:52.501Z,-3.63
2018-03-01T03:53:52.484Z,-3.63
2018-03-01T03:54:52.466Z,-3.62
2018-03-01T03:55:52.446Z,-3.64
2018-03-01T03:56:52.424Z,-3.63
2018-03-01T03:57:52.413Z,-3.67
2018-03-01T03:58:52.390Z,-3.66
2018-03-01T03:59:52.368Z,-3.69
2018-03-01T04:00:52.346Z,-3.64
2018-03-01T04:01:52.323Z,-3.69
2018-03-01T04:02:52.305Z,-3.56
2018-03-01T04:03:52.288Z,-3.57
2018-03-01T04:04:52.263Z,-3.48
2018-03-01T04:05:52.245Z,-3.38
2018-03-01T04:06:52.232Z,-3.28
2018-03-01T04:07:52.212Z,-3.14
2018-03-01T04:08:52.191Z,-3.27
2018-03-01T04:09:52.180Z,-3.17
2018-03-01T04:10:52.156Z,-3.39
2018-03-01T04:11:52.137Z,-3.43
2018-03-01T04:12:52.116Z,-3.43
2018-03-01T04:13:52.092Z,-3.57
2018-03-01T04:14:52.076Z,-3.54
2018-03-01T04:15:52.063Z,-3.69
2018-03-01T04:16:52.040Z,-3.72
2018-03-01T04:17:52.014Z,-3.75
2018-03-01T04:18:51.996Z,-3.67
2018-03-01T04:19:51.975Z,-3.67
2018-03-01T04:20:51.961Z,-3.67
2018-03-01T04:21:51.941Z,-3.72
2018-03-01T04:22:51.935Z,-3.67
2018-03-01T04:23:51.900Z,-3.72
2018-03-01T04:24:51.883Z,-3.69
2018-03-01T04:25:51.860Z,-3.56
2018-03-01T04:26:51.851Z,-3.60
2018-03-01T04:27:51.818Z,-3.54
2018-03-01T04:28:51.804Z,-3.56
2018-03-01T04:29:51.782Z,-3.52
2018-03-01T04:30:51.756Z,-3.53
2018-03-01T04:31:51.750Z,-3.57
2018-03-01T04:32:51.728Z,-3.57
2018-03-01T04:33:51.709Z,-3.54
2018-03-01T04:34:51.691Z,-3.53
2018-03-01T04:35:51.668Z,-3.56
2018-03-01T04:36:51.646Z,-3.59
2018-03-01T04:37:51.628Z,-3.53
2018-03-01T04:38:51.611Z,-3.60
2018-03-01T04:39:51.602Z,-3.49
2018-03-01T04:40:51.568Z,-3.56
2018-03-01T04:41:51.551Z,-3.59
2018-03-01T04:42:51.530Z,-3.62
2018-03-01T04:43:51.511Z,-3.57
2018-03-01T04:44:51.493Z,-3.59
2018-03-01T04:45:51.470Z,-3.60
2018-03-01T04:46:51.454Z,-3.57
2018-03-01T04:47:51.440Z,-3.59
2018-03-01T04:48:51.413Z,-3.60
2018-03-01T04:49:51.399Z,-3.63
2018-03-01T04:50:51.374Z,-3.71
2018-03-01T04:51:51.358Z,-3.72
2018-03-01T04:52:51.338Z,-3.67
2018-03-01T04:53:51.320Z,-3.64
2018-03-01T04:54:51.300Z,-3.71
2018-03-01T04:55:51.287Z,-3.75
2018-03-01T04:56:51.262Z,-3.79
2018-03-01T04:57:51.246Z,-3.82
2018-03-01T04:58:51.222Z,-3.82
2018-03-01T04:59:51.204Z,-3.86
2018-03-01T05:00:51.188Z,-3.75
2018-03-01T05:01:51.173Z,-3.71
2018-03-01T05:02:51.142Z,-3.72
2018-03-01T05:03:51.126Z,-3.54
2018-03-01T05:04:51.110Z,-3.53
2018-03-01T05:05:51.084Z,-3.56
2018-03-01T05:06:51.071Z,-3.60
2018-03-01T05:07:51.049Z,-3.54
2018-03-01T05:08:51.029Z,-3.43
2018-03-01T05:09:51.006Z,-3.53
2018-03-01T05:10:50.997Z,-3.53
2018-03-01T05:11:50.973Z,-3.52
2018-03-01T05:12:50.950Z,-3.56
2018-03-01T05:13:50.926Z,-3.54
2018-03-01T05:14:50.915Z,-3.52
2018-03-01T05:15:50.893Z,-3.45
2018-03-01T05:16:50.874Z,-3.48
2018-03-01T05:17:50.852Z,-3.39
2018-03-01T05:18:50.833Z,-3.42
2018-03-01T05:19:50.820Z,-3.38
2018-03-01T05:20:50.798Z,-3.38
2018-03-01T05:21:50.781Z,-3.36
2018-03-01T05:22:50.764Z,-3.30
2018-03-01T05:23:50.741Z,-3.23
2018-03-01T05:24:50.722Z,-3.23
2018-03-01T05:25:50.696Z,-3.20
2018-03-01T05:26:50.678Z,-3.21
2018-03-01T05:27:50.664Z,-3.24
2018-03-01T05:28:50.644Z,-3.10
2018-03-01T05:29:50.622Z,-3.17
2018-03-01T05:30:50.603Z,-3.05
2018-03-01T05:31:50.586Z,-2.92
2018-03-01T05:32:50.571Z,-3.00
2018-03-01T05:33:50.551Z,-2.89
2018-03-01T05:34:50.529Z,-2.81
2018-03-01T05:35:50.510Z,-2.86
2018-03-01T05:36:50.497Z,-2.89
2018-03-01T05:37:50.478Z,-2.86
2018-03-01T05:38:50.451Z,-2.89
2018-03-01T05:39:50.434Z,-2.84
2018-03-01T05:40:50.415Z,-2.88
2018-03-01T05:41:50.437Z,-2.85
2018-03-01T05:42:50.376Z,-2.86
2018-03-01T05:43:50.359Z,-2.88
2018-03-01T05:44:50.335Z,-2.88
2018-03-01T05:45:50.321Z,-2.91
2018-03-01T05:46:50.301Z,-2.85
2018-03-01T05:47:50.287Z,-2.84
2018-03-01T05:48:50.262Z,-2.82
2018-03-01T05:49:50.244Z,-2.84
2018-03-01T05:50:50.252Z,-2.79
2018-03-01T05:51:50.209Z,-2.78
2018-03-01T05:52:50.184Z,-2.86
2018-03-01T05:53:50.172Z,-2.84
2018-03-01T05:54:50.150Z,-2.84
2018-03-01T05:55:50.138Z,-2.85
2018-03-01T05:56:50.105Z,-2.86
2018-03-01T05:57:50.100Z,-2.88
2018-03-01T05:58:50.073Z,-2.97
2018-03-01T05:59:50.059Z,-2.85
2018-03-01T06:00:50.040Z,-2.92
2018-03-01T06:01:50.022Z,-2.86
2018-03-01T06:02:49.996Z,-2.88
2018-03-01T06:03:49.978Z,-2.82
2018-03-01T06:04:49.957Z,-2.85
2018-03-01T06:05:49.949Z,-2.91
2018-03-01T06:06:49.923Z,-2.99
2018-03-01T06:07:49.902Z,-2.91
2018-03-01T06:08:49.883Z,-2.79
2018-03-01T06:09:49.874Z,-2.77
2018-03-01T06:10:49.847Z,-2.82
2018-03-01T06:11:49.833Z,-2.85
2018-03-01T06:12:49.805Z,-2.74
2018-03-01T06:13:49.799Z,-2.79
2018-03-01T06:14:49.774Z,-2.82
2018-03-01T06:15:49.751Z,-2.79
2018-03-01T06:16:49.733Z,-2.78
2018-03-01T06:17:49.712Z,-2.84
2018-03-01T06:18:49.694Z,-2.85
2018-03-01T06:19:49.678Z,-2.81
2018-03-01T06:20:49.656Z,-2.91
2018-03-01T06:21:49.654Z,-2.86
2018-03-01T06:22:49.631Z,-2.91
2018-03-01T06:23:49.605Z,-2.97
2018-03-01T06:24:49.580Z,-2.88
2018-03-01T06:25:49.561Z,-2.84
2018-03-01T06:26:49.551Z,-2.85
2018-03-01T06:27:49.527Z,-2.81
2018-03-01T06:28:49.504Z,-2.85
2018-03-01T06:29:49.487Z,-2.85
2018-03-01T06:30:49.471Z,-2.81
2018-03-01T06:31:49.449Z,-2.82
2018-03-01T06:32:49.431Z,-2.70
2018-03-01T06:33:49.413Z,-2.77
2018-03-01T06:34:49.393Z,-2.71
2018-03-01T06:35:49.378Z,-2.86
2018-03-01T06:36:49.357Z,-2.85
2018-03-01T06:37:49.334Z,-2.86
2018-03-01T06:38:49.326Z,-2.96
2018-03-01T06:39:49.305Z,-2.86
2018-03-01T06:40:49.277Z,-2.88
2018-03-01T06:41:49.261Z,-2.92
2018-03-01T06:42:49.242Z,-2.94
2018-03-01T06:43:49.232Z,-3.00
2018-03-01T06:44:49.201Z,-2.94
2018-03-01T06:45:49.185Z,-3.03
2018-03-01T06:46:49.163Z,-2.99
2018-03-01T06:47:49.142Z,-2.88
2018-03-01T06:48:49.123Z,-2.99
2018-03-01T06:49:49.111Z,-2.89
2018-03-01T06:50:49.090Z,-2.92
2018-03-01T06:51:49.088Z,-2.84
2018-03-01T06:52:49.049Z,-2.84
2018-03-01T06:53:49.033Z,-2.89
2018-03-01T06:54:49.018Z,-2.81
2018-03-01T06:55:48.989Z,-2.89
2018-03-01T06:56:48.975Z,-2.82
2018-03-01T06:57:48.954Z,-2.82
2018-03-01T06:58:48.944Z,-2.84
2018-03-01T06:59:48.919Z,-2.85
2018-03-01T07:00:48.903Z,-2.79
2018-03-01T07:01:48.884Z,-2.81
2018-03-01T07:02:48.864Z,-2.82
2018-03-01T07:03:48.848Z,-2.81
2018-03-01T07:04:48.823Z,-2.79
2018-03-01T07:05:48.802Z,-2.82
2018-03-01T07:06:48.785Z,-2.74
2018-03-01T07:07:48.762Z,-2.79
2018-03-01T07:08:48.753Z,-2.73
2018-03-01T07:09:48.729Z,-2.81
2018-03-01T07:10:48.709Z,-2.84
2018-03-01T07:11:48.687Z,-2.77
2018-03-01T07:12:48.695Z,-2.66
2018-03-01T07:13:48.647Z,-2.60
2018-03-01T07:14:48.635Z,-2.53
2018-03-01T07:15:48.613Z,-2.52
2018-03-01T07:16:48.602Z,-2.50
2018-03-01T07:17:48.579Z,-2.52
2018-03-01T07:18:48.559Z,-2.37
2018-03-01T07:19:48.535Z,-2.40
2018-03-01T07:20:48.517Z,-2.43
2018-03-01T07:21:48.506Z,-2.23
2018-03-01T07:22:48.491Z,-2.29
2018-03-01T07:23:48.465Z,-2.20
2018-03-01T07:24:48.453Z,-2.52
2018-03-01T07:25:48.432Z,-2.55
2018-03-01T07:26:48.407Z,-2.73
2018-03-01T07:27:48.401Z,-2.66
2018-03-01T07:28:48.376Z,-2.78
2018-03-01T07:29:48.351Z,-2.70
2018-03-01T07:30:48.337Z,-2.66
2018-03-01T07:31:48.314Z,-2.63
2018-03-01T07:32:48.298Z,-2.63
2018-03-01T07:33:48.277Z,-2.60
2018-03-01T07:34:48.265Z,-2.66
2018-03-01T07:35:48.239Z,-2.67
2018-03-01T07:36:48.223Z,-2.61
2018-03-01T07:37:48.201Z,-2.66
2018-03-01T07:38:48.189Z,-2.67
2018-03-01T07:39:48.169Z,-2.53
2018-03-01T07:40:48.159Z,-2.63
2018-03-01T07:41:48.133Z,-2.48
2018-03-01T07:42:48.109Z,-2.45
2018-03-01T07:43:48.090Z,-2.52
2018-03-01T07:44:48.083Z,-2.48
2018-03-01T07:45:48.053Z,-2.27
2018-03-01T07:46:48.035Z,-2.23
2018-03-01T07:47:48.011Z,-2.23
2018-03-01T07:48:48.001Z,-2.21
2018-03-01T07:49:47.981Z,-2.16
2018-03-01T07:50:47.959Z,-2.12
2018-03-01T07:51:47.940Z,-2.13
2018-03-01T07:52:47.932Z,-2.09
2018-03-01T07:53:47.906Z,-2.13
2018-03-01T07:54:47.886Z,-2.05
2018-03-01T07:55:47.865Z,-1.98
2018-03-01T07:56:47.852Z,-1.95
2018-03-01T07:57:47.831Z,-1.98
2018-03-01T07:58:47.811Z,-1.95
2018-03-01T07:59:47.793Z,-1.90
2018-03-01T08:00:47.788Z,-1.98
2018-03-01T08:01:47.757Z,-2.09
2018-03-01T08:02:47.739Z,-2.02
2018-03-01T08:03:47.722Z,-2.03
2018-03-01T08:04:47.711Z,-1.90
2018-03-01T08:05:47.679Z,-1.97
2018-03-01T08:06:47.663Z,-1.77
2018-03-01T08:07:47.646Z,-1.73
2018-03-01T08:08:47.635Z,-1.67
2018-03-01T08:09:47.613Z,-1.58
2018-03-01T08:10:47.593Z,-1.48
2018-03-01T08:11:47.569Z,-1.40
2018-03-01T08:12:47.559Z,-1.28
2018-03-01T08:13:47.535Z,-1.19
2018-03-01T08:14:47.520Z,-1.16
2018-03-01T08:15:47.504Z,-1.09
2018-03-01T08:16:47.493Z,-1.01
2018-03-01T08:17:47.463Z,-1.05
2018-03-01T08:18:47.448Z,-0.99
2018-03-01T08:19:47.429Z,-1.01
2018-03-01T08:20:47.417Z,-1.02
2018-03-01T08:21:47.398Z,-0.98
2018-03-01T08:22:47.385Z,-1.02
2018-03-01T08:23:47.366Z,-0.98
2018-03-01T08:24:47.340Z,-1.04
2018-03-01T08:25:47.323Z,-0.99
2018-03-01T08:26:47.312Z,-1.01
2018-03-01T08:27:47.291Z,-1.01
2018-03-01T08:28:47.274Z,-0.98
2018-03-01T08:29:47.254Z,-0.99
2018-03-01T08:30:47.240Z,-0.97
2018-03-01T08:31:47.219Z,-0.99
2018-03-01T08:32:47.200Z,-0.92
2018-03-01T08:33:47.192Z,-0.95
2018-03-01T08:34:47.166Z,-0.92
2018-03-01T08:35:47.156Z,-0.94
2018-03-01T08:36:47.131Z,-0.91
2018-03-01T08:37:47.117Z,-0.91
2018-03-01T08:38:47.096Z,-0.94
2018-03-01T08:39:47.083Z,-0.85
2018-03-01T08:40:47.067Z,-0.80
2018-03-01T08:41:47.046Z,-0.76
2018-03-01T08:42:47.059Z,-0.83
2018-03-01T08:43:47.009Z,-0.78
2018-03-01T08:44:46.987Z,-0.78
2018-03-01T08:45:46.977Z,-0.80
2018-03-01T08:46:46.961Z,-0.75
2018-03-01T08:47:46.943Z,-0.75
2018-03-01T08:48:46.931Z,-0.72
2018-03-01T08:49:46.905Z,-0.70
2018-03-01T08:50:46.891Z,-0.67
2018-03-01T08:51:46.871Z,-0.73
2018-03-01T08:52:46.862Z,-0.73
2018-03-01T08:53:46.844Z,-0.61
2018-03-01T08:54:46.819Z,-0.58
2018-03-01T08:55:46.808Z,-0.67
2018-03-01T08:56:46.787Z,-0.57
2018-03-01T08:57:46.774Z,-0.65
2018-03-01T08:58:46.752Z,-0.61
2018-03-01T08:59:46.730Z,-0.70
2018-03-01T09:00:46.720Z,-0.73
2018-03-01T09:01:46.699Z,-0.73
2018-03-01T09:02:46.680Z,-0.80
2018-03-01T09:03:46.665Z,-0.95
2018-03-01T09:04:46.647Z,-0.99
2018-03-01T09:05:46.633Z,-1.07
2018-03-01T09:06:46.614Z,-1.12
2018-03-01T09:07:46.596Z,-1.16
2018-03-01T09:08:46.583Z,-1.23
2018-03-01T09:09:46.563Z,-1.23
2018-03-01T09:10:46.555Z,-1.22
2018-03-01T09:11:46.526Z,-1.13
2018-03-01T09:12:46.514Z,-0.99
2018-03-01T09:13:46.493Z,-0.98
2018-03-01T09:14:46.500Z,-0.92
2018-03-01T09:15:46.460Z,-0.80
2018-03-01T09:16:46.443Z,-0.80
2018-03-01T09:17:46.426Z,-0.79
2018-03-01T09:18:46.403Z,-0.65
2018-03-01T09:19:46.387Z,-0.72
2018-03-01T09:20:46.367Z,-0.65
2018-03-01T09:21:46.353Z,-0.60
2018-03-01T09:22:46.335Z,-0.61
2018-03-01T09:23:46.323Z,-0.67
2018-03-01T09:24:46.304Z,-0.57
2018-03-01T09:25:46.283Z,-0.49
2018-03-01T09:26:46.266Z,-0.55
2018-03-01T09:27:46.252Z,-0.43
2018-03-01T09:28:46.237Z,-0.36
2018-03-01T09:29:46.224Z,-0.40
2018-03-01T09:30:46.200Z,-0.33
2018-03-01T09:31:46.184Z,-0.29
2018-03-01T09:32:46.163Z,-0.22
2018-03-01T09:33:46.146Z,-0.16
2018-03-01T09:34:46.129Z,-0.25
2018-03-01T09:35:46.113Z,-0.37
2018-03-01T09:36:46.098Z,-0.36
2018-03-01T09:37:46.078Z,-0.46
2018-03-01T09:38:46.067Z,-0.40
2018-03-01T09:39:46.049Z,-0.36
2018-03-01T09:40:46.032Z,-0.25
2018-03-01T09:41:46.010Z,-0.34
2018-03-01T09:42:45.995Z,-0.26
2018-03-01T09:43:45.978Z,-0.18
2018-03-01T09:44:45.958Z,-0.10
2018-03-01T09:45:45.946Z,-0.04
2018-03-01T09:46:45.926Z,0.00
2018-03-01T09:47:45.911Z,0.08
2018-03-01T09:48:45.897Z,0.17
2018-03-01T09:49:45.884Z,0.31
2018-03-01T09:50:45.864Z,0.41
2018-03-01T09:51:45.854Z,0.50
2018-03-01T09:52:45.829Z,0.61
2018-03-01T09:53:45.830Z,0.78
2018-03-01T09:54:45.792Z,0.94
2018-03-01T09:55:45.788Z,1.12
2018-03-01T09:56:45.763Z,1.14
2018-03-01T09:57:45.744Z,1.42
2018-03-01T09:58:45.725Z,1.51
2018-03-01T09:59:45.712Z,1.72
2018-03-01T10:00:45.700Z,1.86
2018-03-01T10:01:45.678Z,1.90
2018-03-01T10:02:45.665Z,2.02
2018-03-01T10:03:45.660Z,2.07
2018-03-01T10:04:45.632Z,2.14
2018-03-01T10:05:45.614Z,2.27
2018-03-01T10:06:45.600Z,2.34
2018-03-01T10:07:45.580Z,2.41
2018-03-01T10:08:45.572Z,2.59
2018-03-01T10:09:45.548Z,2.79
2018-03-01T10:10:45.532Z,2.99
2018-03-01T10:11:45.522Z,3.05
2018-03-01T10:12:45.506Z,3.18
2018-03-01T10:13:45.490Z,3.08
2018-03-01T10:14:45.474Z,2.99
2018-03-01T10:15:45.468Z,3.02
2018-03-01T10:16:45.444Z,2.72
2018-03-01T10:17:45.431Z,2.72
2018-03-01T10:18:45.411Z,2.69
2018-03-01T10:19:45.400Z,2.78
2018-03-01T10:20:45.378Z,2.84
2018-03-01T10:21:45.366Z,2.75
2018-03-01T10:22:45.358Z,2.99
2018-03-01T10:23:45.339Z,3.11
2018-03-01T10:24:45.330Z,3.21
2018-03-01T10:25:45.306Z,3.39
2018-03-01T10:26:45.299Z,3.54
2018-03-01T10:27:45.276Z,3.61
2018-03-01T10:28:45.260Z,3.60
2018-03-01T10:29:45.252Z,3.69
2018-03-01T10:30:45.237Z,3.58
2018-03-01T10:31:45.220Z,3.52
2018-03-01T10:32:45.209Z,3.42
2018-03-01T10:33:45.188Z,3.21
2018-03-01T10:34:45.174Z,3.20
2018-03-01T10:35:45.160Z,3.28
2018-03-01T10:36:45.147Z,3.28
2018-03-01T10:37:45.130Z,3.18
2018-03-01T10:38:45.114Z,3.15
2018-03-01T10:39:45.107Z,3.05
2018-03-01T10:40:45.088Z,3.20
2018-03-01T10:41:45.075Z,3.20
2018-03-01T10:42:45.055Z,3.26
2018-03-01T10:43:45.043Z,3.42
2018-03-01T10:44:45.025Z,3.47
2018-03-01T10:45:45.016Z,3.55
2018-03-01T10:46:45.002Z,3.58
2018-03-01T10:47:44.986Z,3.60
2018-03-01T10:48:44.969Z,3.62
2018-03-01T10:49:44.959Z,3.54
2018-03-01T10:50:44.947Z,3.45
2018-03-01T10:51:44.927Z,3.39
2018-03-01T10:52:44.913Z,3.35
2018-03-01T10:53:44.899Z,3.23
2018-03-01T10:54:44.885Z,3.23
2018-03-01T10:55:44.872Z,3.02
2018-03-01T10:56:44.849Z,3.11
2018-03-01T10:57:44.841Z,3.20
2018-03-01T10:58:44.830Z,3.28
2018-03-01T10:59:44.813Z,3.35
2018-03-01T11:00:44.796Z,3.54
2018-03-01T11:01:44.778Z,3.65
2018-03-01T11:02:44.768Z,3.76
2018-03-01T11:03:44.753Z,3.65
2018-03-01T11:04:44.733Z,3.54
2018-03-01T11:05:44.723Z,3.62
2018-03-01T11:06:44.711Z,3.72
2018-03-01T11:07:44.698Z,3.83
2018-03-01T11:08:44.687Z,3.98
2018-03-01T11:09:44.666Z,3.96
2018-03-01T11:10:44.687Z,4.00
2018-03-01T11:11:44.633Z,4.04
2018-03-01T11:12:44.618Z,4.11
2018-03-01T11:13:44.609Z,4.11
2018-03-01T11:14:44.596Z,4.11
2018-03-01T11:15:44.580Z,4.15
2018-03-01T11:16:44.567Z,4.18
2018-03-01T11:17:44.549Z,4.26
2018-03-01T11:18:44.536Z,4.22
2018-03-01T11:19:44.522Z,4.06
2018-03-01T11:20:44.507Z,4.06
2018-03-01T11:21:44.495Z,4.04
2018-03-01T11:22:44.478Z,4.02
2018-03-01T11:23:44.470Z,4.09
2018-03-01T11:24:44.446Z,4.09
2018-03-01T11:25:44.436Z,4.05
2018-03-01T11:26:44.424Z,4.09
2018-03-01T11:27:44.410Z,4.12
2018-03-01T11:28:44.398Z,4.09
2018-03-01T11:29:44.384Z,4.18
2018-03-01T11:30:44.369Z,4.14
2018-03-01T11:31:44.352Z,4.18
2018-03-01T11:32:44.341Z,4.22
2018-03-01T11:33:44.326Z,4.27
2018-03-01T11:34:44.355Z,4.34
2018-03-01T11:35:44.298Z,4.37
2018-03-01T11:36:44.284Z,4.36
2018-03-01T11:37:44.267Z,4.40
2018-03-01T11:38:44.254Z,4.37
2018-03-01T11:39:44.240Z,4.45
2018-03-01T11:40:44.226Z,4.33
2018-03-01T11:41:44.210Z,4.48
2018-03-01T11:42:44.194Z,4.44
2018-03-01T11:43:44.186Z,4.48
2018-03-01T11:44:44.172Z,4.55
2018-03-01T11:45:44.158Z,4.54
2018-03-01T11:46:44.142Z,4.42
2018-03-01T11:47:44.128Z,4.47
2018-03-01T11:48:44.114Z,4.33
2018-03-01T11:49:44.104Z,4.36
2018-03-01T11:50:44.084Z,4.30
2018-03-01T11:51:44.074Z,4.34
2018-03-01T11:52:44.060Z,4.30
2018-03-01T11:53:44.044Z,4.37
2018-03-01T11:54:44.030Z,4.40
2018-03-01T11:55:44.016Z,4.32
2018-03-01T11:56:44.004Z,4.44
2018-03-01T11:57:43.988Z,4.33
2018-03-01T11:58:43.970Z,4.12
2018-03-01T11:59:43.958Z,4.11
2018-03-01T12:00:43.954Z,4.11
2018-03-01T12:01:43.936Z,4.11
2018-03-01T12:02:43.916Z,4.18
2018-03-01T12:03:43.910Z,4.34
2018-03-01T12:04:43.895Z,4.30
2018-03-01T12:05:43.880Z,4.37
2018-03-01T12:06:43.865Z,4.54
2018-03-01T12:07:43.851Z,4.54
2018-03-01T12:08:43.844Z,4.72
2018-03-01T12:09:43.822Z,4.78
2018-03-01T12:10:43.812Z,4.85
2018-03-01T12:11:43.797Z,4.99
2018-03-01T12:12:43.797Z,5.13
2018-03-01T12:13:43.770Z,5.03
2018-03-01T12:14:43.752Z,4.99
2018-03-01T12:15:43.744Z,4.97
2018-03-01T12:16:43.731Z,4.86
2018-03-01T12:17:43.716Z,4.88
2018-03-01T12:18:43.702Z,4.84
2018-03-01T12:19:43.698Z,4.92
2018-03-01T12:20:43.666Z,4.97
2018-03-01T12:21:43.662Z,4.96
2018-03-01T12:22:43.648Z,5.06
2018-03-01T12:23:43.640Z,5.00
2018-03-01T12:24:43.618Z,5.02
2018-03-01T12:25:43.602Z,4.99
2018-03-01T12:26:43.587Z,4.97
2018-03-01T12:27:43.582Z,4.84
2018-03-01T12:28:43.570Z,4.89
2018-03-01T12:29:43.550Z,4.84
2018-03-01T12:30:43.536Z,4.84
2018-03-01T12:31:43.522Z,4.92
2018-03-01T12:32:43.514Z,4.94
2018-03-01T12:33:43.495Z,5.03
2018-03-01T12:34:43.484Z,4.94
2018-03-01T12:35:43.468Z,4.94
2018-03-01T12:36:43.458Z,4.96
2018-03-01T12:37:43.448Z,4.92
2018-03-01T12:38:43.426Z,4.99
2018-03-01T12:39:43.416Z,4.99
2018-03-01T12:40:43.408Z,4.99
2018-03-01T12:41:43.393Z,4.86
2018-03-01T12:42:43.375Z,4.80
2018-03-01T12:43:43.364Z,4.73
2018-03-01T12:44:43.352Z,4.55
2018-03-01T12:45:43.334Z,4.54
2018-03-01T12:46:43.316Z,4.42
2018-03-01T12:47:43.308Z,4.44
2018-03-01T12:48:43.300Z,4.45
2018-03-01T12:49:43.280Z,4.48
2018-03-01T12:50:43.276Z,4.44
2018-03-01T12:51:43.254Z,4.44
2018-03-01T12:52:43.250Z,4.40
2018-03-01T12:53:43.228Z,4.54
2018-03-01T12:54:43.212Z,4.48
2018-03-01T12:55:43.201Z,4.51
2018-03-01T12:56:43.180Z,4.54
2018-03-01T12:57:43.172Z,4.55
2018-03-01T12:58:43.155Z,4.54